sensor_id;sensor_type;location;lat;lon;timestamp;temperature;humidity
3086;DHT22;52812;48.960;9.108;2023-08-17T00:01:25;19.70;99.90
3086;DHT22;52812;48.960;9.108;2023-08-17T00:03:50;19.60;99.90
3086;DHT22;52812;48.960;9.108;2023-08-17T00:06:16;19.60;99.90
3086;DHT22;52812;48.960;9.108;2023-08-17T00:08:42;19.60;99.90
3086;DHT22;52812;48.960;9.108;2023-08-17T00:11:08;19.60;99.90
3086;DHT22;52812;48.960;9.108;2023-08-17T00:13:34;19.50;99.90
3086;DHT22;52812;48.960;9.108;2023-08-17T00:16:00;19.50;99.90
3086;DHT22;52812;48.960;9.108;2023-08-17T00:18:25;19.40;99.90
3086;DHT22;52812;48.960;9.108;2023-08-17T00:20:51;19.30;99.90
3086;DHT22;52812;48.960;9.108;2023-08-17T00:23:17;19.30;99.90
3086;DHT22;52812;48.960;9.108;2023-08-17T00:25:43;19.30;99.90
3086;DHT22;52812;48.960;9.108;2023-08-17T00:28:08;19.30;99.90
3086;DHT22;52812;48.960;9.108;2023-08-17T00:30:34;19.30;99.90
3086;DHT22;52812;48.960;9.108;2023-08-17T00:33:02;19.30;99.90
3086;DHT22;52812;48.960;9.108;2023-08-17T00:35:27;19.30;99.90
3086;DHT22;52812;48.960;9.108;2023-08-17T00:37:53;19.30;99.90
3086;DHT22;52812;48.960;9.108;2023-08-17T00:40:20;19.20;99.90
3086;DHT22;52812;48.960;9.108;2023-08-17T00:42:45;19.20;99.90
3086;DHT22;52812;48.960;9.108;2023-08-17T00:45:11;19.20;99.90
3086;DHT22;52812;48.960;9.108;2023-08-17T00:47:37;19.20;99.90
3086;DHT22;52812;48.960;9.108;2023-08-17T00:50:03;19.10;99.90
3086;DHT22;52812;48.960;9.108;2023-08-17T00:52:30;19.10;99.90
3086;DHT22;52812;48.960;9.108;2023-08-17T00:54:58;19.00;99.90
3086;DHT22;52812;48.960;9.108;2023-08-17T00:57:24;19.00;99.90
3086;DHT22;52812;48.960;9.108;2023-08-17T00:59:50;19.00;99.90
3086;DHT22;52812;48.960;9.108;2023-08-17T01:02:17;19.00;99.90
3086;DHT22;52812;48.960;9.108;2023-08-17T01:04:43;19.00;99.90
3086;DHT22;52812;48.960;9.108;2023-08-17T01:07:08;19.00;99.90
3086;DHT22;52812;48.960;9.108;2023-08-17T01:09:34;19.00;99.90
3086;DHT22;52812;48.960;9.108;2023-08-17T01:12:11;18.90;99.90
3086;DHT22;52812;48.960;9.108;2023-08-17T01:14:48;19.00;99.90
3086;DHT22;52812;48.960;9.108;2023-08-17T01:17:22;19.10;99.90
3086;DHT22;52812;48.960;9.108;2023-08-17T01:19:50;19.10;99.90
3086;DHT22;52812;48.960;9.108;2023-08-17T01:22:17;19.20;99.90
3086;DHT22;52812;48.960;9.108;2023-08-17T01:24:46;19.30;99.90
3086;DHT22;52812;48.960;9.108;2023-08-17T01:27:11;19.30;99.90
3086;DHT22;52812;48.960;9.108;2023-08-17T01:29:37;19.30;99.90
3086;DHT22;52812;48.960;9.108;2023-08-17T01:32:51;19.40;99.90
3086;DHT22;52812;48.960;9.108;2023-08-17T01:35:29;19.40;99.90
3086;DHT22;52812;48.960;9.108;2023-08-17T01:37:59;19.40;99.90
3086;DHT22;52812;48.960;9.108;2023-08-17T01:40:28;19.40;99.90
3086;DHT22;52812;48.960;9.108;2023-08-17T01:42:54;19.50;99.90
3086;DHT22;52812;48.960;9.108;2023-08-17T01:45:21;19.50;99.90
3086;DHT22;52812;48.960;9.108;2023-08-17T01:47:46;19.50;99.90
3086;DHT22;52812;48.960;9.108;2023-08-17T01:50:12;19.50;99.90
3086;DHT22;52812;48.960;9.108;2023-08-17T01:52:38;19.50;99.90
3086;DHT22;52812;48.960;9.108;2023-08-17T01:55:03;19.60;99.90
3086;DHT22;52812;48.960;9.108;2023-08-17T01:57:29;19.60;99.90
3086;DHT22;52812;48.960;9.108;2023-08-17T01:59:54;19.60;99.90
3086;DHT22;52812;48.960;9.108;2023-08-17T02:02:20;19.60;99.90
3086;DHT22;52812;48.960;9.108;2023-08-17T02:04:47;19.70;99.90
3086;DHT22;52812;48.960;9.108;2023-08-17T02:07:12;19.70;99.90
3086;DHT22;52812;48.960;9.108;2023-08-17T02:09:38;19.70;99.90
3086;DHT22;52812;48.960;9.108;2023-08-17T02:12:03;19.70;99.90
3086;DHT22;52812;48.960;9.108;2023-08-17T02:14:29;19.70;99.90
3086;DHT22;52812;48.960;9.108;2023-08-17T02:16:55;19.70;99.90
3086;DHT22;52812;48.960;9.108;2023-08-17T02:19:20;19.70;99.90
3086;DHT22;52812;48.960;9.108;2023-08-17T02:21:46;19.80;99.90
3086;DHT22;52812;48.960;9.108;2023-08-17T02:24:11;19.70;99.90
3086;DHT22;52812;48.960;9.108;2023-08-17T02:26:37;19.70;99.90
3086;DHT22;52812;48.960;9.108;2023-08-17T02:29:04;19.70;99.90
3086;DHT22;52812;48.960;9.108;2023-08-17T02:31:29;19.80;99.90
3086;DHT22;52812;48.960;9.108;2023-08-17T02:33:55;19.80;99.90
3086;DHT22;52812;48.960;9.108;2023-08-17T02:36:28;19.80;99.90
3086;DHT22;52812;48.960;9.108;2023-08-17T02:38:55;19.80;99.90
3086;DHT22;52812;48.960;9.108;2023-08-17T02:41:20;19.70;99.90
3086;DHT22;52812;48.960;9.108;2023-08-17T02:43:46;19.80;99.90
3086;DHT22;52812;48.960;9.108;2023-08-17T02:46:11;19.80;99.90
3086;DHT22;52812;48.960;9.108;2023-08-17T02:48:37;19.80;99.90
3086;DHT22;52812;48.960;9.108;2023-08-17T02:51:02;19.80;99.90
3086;DHT22;52812;48.960;9.108;2023-08-17T02:53:28;19.80;99.90
3086;DHT22;52812;48.960;9.108;2023-08-17T02:55:53;19.80;99.90
3086;DHT22;52812;48.960;9.108;2023-08-17T02:58:19;19.80;99.90
3086;DHT22;52812;48.960;9.108;2023-08-17T03:00:44;19.80;99.90
3086;DHT22;52812;48.960;9.108;2023-08-17T03:03:10;19.80;99.90
3086;DHT22;52812;48.960;9.108;2023-08-17T03:05:36;19.70;99.90
3086;DHT22;52812;48.960;9.108;2023-08-17T03:08:01;19.70;99.90
3086;DHT22;52812;48.960;9.108;2023-08-17T03:10:27;19.70;99.90
3086;DHT22;52812;48.960;9.108;2023-08-17T03:12:52;19.70;99.90
3086;DHT22;52812;48.960;9.108;2023-08-17T03:15:18;19.80;99.90
3086;DHT22;52812;48.960;9.108;2023-08-17T03:17:43;19.80;99.90
3086;DHT22;52812;48.960;9.108;2023-08-17T03:20:09;19.80;99.90
3086;DHT22;52812;48.960;9.108;2023-08-17T03:22:35;19.80;99.90
3086;DHT22;52812;48.960;9.108;2023-08-17T03:25:01;19.80;99.90
3086;DHT22;52812;48.960;9.108;2023-08-17T03:27:26;19.80;99.90
3086;DHT22;52812;48.960;9.108;2023-08-17T03:29:54;19.80;99.90
3086;DHT22;52812;48.960;9.108;2023-08-17T03:32:19;19.80;99.90
3086;DHT22;52812;48.960;9.108;2023-08-17T03:34:45;19.80;99.90
3086;DHT22;52812;48.960;9.108;2023-08-17T03:37:10;19.80;99.90
3086;DHT22;52812;48.960;9.108;2023-08-17T03:39:36;19.90;99.90
3086;DHT22;52812;48.960;9.108;2023-08-17T03:42:01;19.80;99.90
3086;DHT22;52812;48.960;9.108;2023-08-17T03:44:27;19.80;99.90
3086;DHT22;52812;48.960;9.108;2023-08-17T03:46:52;19.80;99.90
3086;DHT22;52812;48.960;9.108;2023-08-17T03:49:18;19.80;99.90
3086;DHT22;52812;48.960;9.108;2023-08-17T03:51:43;19.80;99.90
3086;DHT22;52812;48.960;9.108;2023-08-17T03:54:09;19.80;99.90
3086;DHT22;52812;48.960;9.108;2023-08-17T03:56:34;19.80;99.90
3086;DHT22;52812;48.960;9.108;2023-08-17T03:59:00;19.80;99.90
3086;DHT22;52812;48.960;9.108;2023-08-17T04:01:25;19.80;99.90
3086;DHT22;52812;48.960;9.108;2023-08-17T04:03:51;19.80;99.90
3086;DHT22;52812;48.960;9.108;2023-08-17T04:06:16;19.70;99.90
3086;DHT22;52812;48.960;9.108;2023-08-17T04:08:42;19.80;99.90
3086;DHT22;52812;48.960;9.108;2023-08-17T04:11:07;19.80;99.90
3086;DHT22;52812;48.960;9.108;2023-08-17T04:13:33;19.80;99.90
3086;DHT22;52812;48.960;9.108;2023-08-17T04:15:59;19.80;99.90
3086;DHT22;52812;48.960;9.108;2023-08-17T04:18:24;19.90;99.90
3086;DHT22;52812;48.960;9.108;2023-08-17T04:20:50;19.80;99.90
3086;DHT22;52812;48.960;9.108;2023-08-17T04:23:15;19.80;99.90
3086;DHT22;52812;48.960;9.108;2023-08-17T04:25:42;19.90;99.90
3086;DHT22;52812;48.960;9.108;2023-08-17T04:28:07;20.00;99.90
3086;DHT22;52812;48.960;9.108;2023-08-17T04:30:33;19.90;99.90
3086;DHT22;52812;48.960;9.108;2023-08-17T04:32:58;19.90;99.90
3086;DHT22;52812;48.960;9.108;2023-08-17T04:35:24;19.90;99.90
3086;DHT22;52812;48.960;9.108;2023-08-17T04:37:49;19.90;99.90
3086;DHT22;52812;48.960;9.108;2023-08-17T04:40:15;19.90;99.90
3086;DHT22;52812;48.960;9.108;2023-08-17T04:42:40;19.90;99.90
3086;DHT22;52812;48.960;9.108;2023-08-17T04:45:06;19.90;99.90
3086;DHT22;52812;48.960;9.108;2023-08-17T04:47:32;19.90;99.90
3086;DHT22;52812;48.960;9.108;2023-08-17T04:49:58;19.90;99.90
3086;DHT22;52812;48.960;9.108;2023-08-17T04:52:23;19.90;99.90
3086;DHT22;52812;48.960;9.108;2023-08-17T04:54:49;19.90;99.90
3086;DHT22;52812;48.960;9.108;2023-08-17T04:57:14;19.90;99.90
3086;DHT22;52812;48.960;9.108;2023-08-17T04:59:40;19.90;99.90
3086;DHT22;52812;48.960;9.108;2023-08-17T05:02:06;20.00;99.90
3086;DHT22;52812;48.960;9.108;2023-08-17T05:04:31;20.00;99.90
3086;DHT22;52812;48.960;9.108;2023-08-17T05:06:57;20.00;99.90
3086;DHT22;52812;48.960;9.108;2023-08-17T05:09:23;20.10;99.90
3086;DHT22;52812;48.960;9.108;2023-08-17T05:11:49;20.10;99.90
3086;DHT22;52812;48.960;9.108;2023-08-17T05:14:15;20.10;99.90
3086;DHT22;52812;48.960;9.108;2023-08-17T05:16:40;20.10;99.90
3086;DHT22;52812;48.960;9.108;2023-08-17T05:19:06;20.20;99.90
3086;DHT22;52812;48.960;9.108;2023-08-17T05:21:31;20.20;99.90
3086;DHT22;52812;48.960;9.108;2023-08-17T05:23:57;20.20;99.90
3086;DHT22;52812;48.960;9.108;2023-08-17T05:26:23;20.20;99.90
3086;DHT22;52812;48.960;9.108;2023-08-17T05:28:48;20.20;99.90
3086;DHT22;52812;48.960;9.108;2023-08-17T05:31:14;20.20;99.90
3086;DHT22;52812;48.960;9.108;2023-08-17T05:33:39;20.20;99.90
3086;DHT22;52812;48.960;9.108;2023-08-17T05:36:08;20.20;99.90
3086;DHT22;52812;48.960;9.108;2023-08-17T05:38:33;20.30;99.90
3086;DHT22;52812;48.960;9.108;2023-08-17T05:40:59;20.30;99.90
3086;DHT22;52812;48.960;9.108;2023-08-17T05:43:27;20.30;99.90
3086;DHT22;52812;48.960;9.108;2023-08-17T05:45:52;20.40;99.90
3086;DHT22;52812;48.960;9.108;2023-08-17T05:48:19;20.40;99.90
3086;DHT22;52812;48.960;9.108;2023-08-17T05:50:45;20.50;99.90
3086;DHT22;52812;48.960;9.108;2023-08-17T05:53:10;20.50;99.90
3086;DHT22;52812;48.960;9.108;2023-08-17T05:55:36;20.60;99.90
3086;DHT22;52812;48.960;9.108;2023-08-17T05:58:02;20.70;99.90
3086;DHT22;52812;48.960;9.108;2023-08-17T06:00:29;20.70;99.90
3086;DHT22;52812;48.960;9.108;2023-08-17T06:02:55;20.80;99.90
3086;DHT22;52812;48.960;9.108;2023-08-17T06:05:26;20.90;99.90
3086;DHT22;52812;48.960;9.108;2023-08-17T06:07:52;20.90;99.90
3086;DHT22;52812;48.960;9.108;2023-08-17T06:10:18;21.00;99.90
3086;DHT22;52812;48.960;9.108;2023-08-17T06:12:44;20.90;99.90
3086;DHT22;52812;48.960;9.108;2023-08-17T06:15:09;20.80;99.90
3086;DHT22;52812;48.960;9.108;2023-08-17T06:17:35;20.90;99.90
3086;DHT22;52812;48.960;9.108;2023-08-17T06:20:01;20.80;99.90
3086;DHT22;52812;48.960;9.108;2023-08-17T06:22:28;20.90;99.90
3086;DHT22;52812;48.960;9.108;2023-08-17T06:24:53;20.90;99.90
3086;DHT22;52812;48.960;9.108;2023-08-17T06:27:19;21.00;99.90
3086;DHT22;52812;48.960;9.108;2023-08-17T06:29:45;21.10;99.90
3086;DHT22;52812;48.960;9.108;2023-08-17T06:32:10;21.20;99.90
3086;DHT22;52812;48.960;9.108;2023-08-17T06:34:36;21.30;99.90
3086;DHT22;52812;48.960;9.108;2023-08-17T06:37:03;21.40;99.90
3086;DHT22;52812;48.960;9.108;2023-08-17T06:39:29;21.40;99.90
3086;DHT22;52812;48.960;9.108;2023-08-17T06:41:54;21.60;99.90
3086;DHT22;52812;48.960;9.108;2023-08-17T06:44:20;21.60;99.90
3086;DHT22;52812;48.960;9.108;2023-08-17T06:46:46;21.60;99.90
3086;DHT22;52812;48.960;9.108;2023-08-17T06:49:12;21.60;99.90
3086;DHT22;52812;48.960;9.108;2023-08-17T06:51:38;21.60;99.90
3086;DHT22;52812;48.960;9.108;2023-08-17T06:54:05;21.70;99.90
3086;DHT22;52812;48.960;9.108;2023-08-17T06:56:31;21.80;99.90
3086;DHT22;52812;48.960;9.108;2023-08-17T06:58:56;21.80;99.90
3086;DHT22;52812;48.960;9.108;2023-08-17T07:01:22;21.80;99.90
3086;DHT22;52812;48.960;9.108;2023-08-17T07:03:47;21.80;99.90
3086;DHT22;52812;48.960;9.108;2023-08-17T07:06:13;21.90;99.90
3086;DHT22;52812;48.960;9.108;2023-08-17T07:08:39;22.10;99.90
3086;DHT22;52812;48.960;9.108;2023-08-17T07:11:04;22.30;99.90
3086;DHT22;52812;48.960;9.108;2023-08-17T07:13:33;22.40;99.90
3086;DHT22;52812;48.960;9.108;2023-08-17T07:15:59;22.50;99.90
3086;DHT22;52812;48.960;9.108;2023-08-17T07:18:24;22.50;99.90
3086;DHT22;52812;48.960;9.108;2023-08-17T07:20:50;22.60;99.90
3086;DHT22;52812;48.960;9.108;2023-08-17T07:23:19;22.60;99.90
3086;DHT22;52812;48.960;9.108;2023-08-17T07:25:54;22.60;99.90
3086;DHT22;52812;48.960;9.108;2023-08-17T07:28:19;22.60;99.90
3086;DHT22;52812;48.960;9.108;2023-08-17T07:31:19;22.60;99.90
3086;DHT22;52812;48.960;9.108;2023-08-17T07:33:54;22.60;99.90
3086;DHT22;52812;48.960;9.108;2023-08-17T07:36:20;22.60;99.90
3086;DHT22;52812;48.960;9.108;2023-08-17T07:38:45;22.60;99.90
3086;DHT22;52812;48.960;9.108;2023-08-17T07:41:11;22.80;99.90
3086;DHT22;52812;48.960;9.108;2023-08-17T07:43:36;22.80;99.90
3086;DHT22;52812;48.960;9.108;2023-08-17T07:46:02;22.90;99.90
3086;DHT22;52812;48.960;9.108;2023-08-17T07:48:27;23.00;99.90
3086;DHT22;52812;48.960;9.108;2023-08-17T07:50:58;23.10;99.90
3086;DHT22;52812;48.960;9.108;2023-08-17T07:53:24;23.30;99.90
3086;DHT22;52812;48.960;9.108;2023-08-17T07:55:50;23.50;99.90
3086;DHT22;52812;48.960;9.108;2023-08-17T07:58:15;23.70;99.90
3086;DHT22;52812;48.960;9.108;2023-08-17T08:00:41;23.80;99.90
3086;DHT22;52812;48.960;9.108;2023-08-17T08:03:06;23.90;99.90
3086;DHT22;52812;48.960;9.108;2023-08-17T08:05:32;24.00;99.90
3086;DHT22;52812;48.960;9.108;2023-08-17T08:07:57;24.20;99.90
3086;DHT22;52812;48.960;9.108;2023-08-17T08:10:23;24.20;99.90
3086;DHT22;52812;48.960;9.108;2023-08-17T08:12:48;24.20;99.90
3086;DHT22;52812;48.960;9.108;2023-08-17T08:15:15;24.30;99.90
3086;DHT22;52812;48.960;9.108;2023-08-17T08:17:40;24.30;99.90
3086;DHT22;52812;48.960;9.108;2023-08-17T08:20:07;24.90;99.90
3086;DHT22;52812;48.960;9.108;2023-08-17T08:22:32;25.00;99.90
3086;DHT22;52812;48.960;9.108;2023-08-17T08:24:58;25.30;99.90
3086;DHT22;52812;48.960;9.108;2023-08-17T08:27:24;25.40;99.90
3086;DHT22;52812;48.960;9.108;2023-08-17T08:29:50;25.40;99.90
3086;DHT22;52812;48.960;9.108;2023-08-17T08:32:16;25.30;99.90
3086;DHT22;52812;48.960;9.108;2023-08-17T08:34:41;25.20;99.90
3086;DHT22;52812;48.960;9.108;2023-08-17T08:37:24;25.40;99.90
3086;DHT22;52812;48.960;9.108;2023-08-17T08:39:50;25.40;99.90
3086;DHT22;52812;48.960;9.108;2023-08-17T08:42:18;25.20;99.90
3086;DHT22;52812;48.960;9.108;2023-08-17T08:44:45;25.20;99.90
3086;DHT22;52812;48.960;9.108;2023-08-17T08:47:12;25.20;99.90
3086;DHT22;52812;48.960;9.108;2023-08-17T08:49:40;24.90;99.90
3086;DHT22;52812;48.960;9.108;2023-08-17T08:52:12;25.00;99.90
3086;DHT22;52812;48.960;9.108;2023-08-17T08:54:43;24.90;99.90
3086;DHT22;52812;48.960;9.108;2023-08-17T08:57:13;24.90;99.90
3086;DHT22;52812;48.960;9.108;2023-08-17T08:59:45;24.80;99.90
3086;DHT22;52812;48.960;9.108;2023-08-17T09:02:44;25.00;99.90
3086;DHT22;52812;48.960;9.108;2023-08-17T09:05:22;25.20;99.90
3086;DHT22;52812;48.960;9.108;2023-08-17T09:07:54;25.20;99.90
3086;DHT22;52812;48.960;9.108;2023-08-17T09:10:35;25.40;99.90
3086;DHT22;52812;48.960;9.108;2023-08-17T09:13:02;25.50;99.90
3086;DHT22;52812;48.960;9.108;2023-08-17T09:19:33;25.70;99.90
3086;DHT22;52812;48.960;9.108;2023-08-17T09:22:51;25.80;99.90
3086;DHT22;52812;48.960;9.108;2023-08-17T09:25:22;25.90;99.90
3086;DHT22;52812;48.960;9.108;2023-08-17T09:28:31;25.90;99.90
3086;DHT22;52812;48.960;9.108;2023-08-17T09:32:01;25.80;99.90
3086;DHT22;52812;48.960;9.108;2023-08-17T09:34:57;25.70;99.90
3086;DHT22;52812;48.960;9.108;2023-08-17T09:37:22;25.70;99.90
3086;DHT22;52812;48.960;9.108;2023-08-17T09:39:48;25.90;99.90
3086;DHT22;52812;48.960;9.108;2023-08-17T09:42:14;25.80;99.90
3086;DHT22;52812;48.960;9.108;2023-08-17T09:44:42;26.10;99.90
3086;DHT22;52812;48.960;9.108;2023-08-17T09:47:08;25.80;99.90
3086;DHT22;52812;48.960;9.108;2023-08-17T09:49:35;25.70;99.90
3086;DHT22;52812;48.960;9.108;2023-08-17T09:52:02;26.10;99.90
3086;DHT22;52812;48.960;9.108;2023-08-17T09:54:31;26.30;99.90
3086;DHT22;52812;48.960;9.108;2023-08-17T09:56:58;26.20;99.90
3086;DHT22;52812;48.960;9.108;2023-08-17T09:59:23;26.40;99.90
3086;DHT22;52812;48.960;9.108;2023-08-17T10:01:51;26.30;99.90
3086;DHT22;52812;48.960;9.108;2023-08-17T10:04:26;26.60;99.90
3086;DHT22;52812;48.960;9.108;2023-08-17T10:07:01;27.00;99.90
3086;DHT22;52812;48.960;9.108;2023-08-17T10:09:32;27.00;99.90
3086;DHT22;52812;48.960;9.108;2023-08-17T10:12:14;27.20;99.90
3086;DHT22;52812;48.960;9.108;2023-08-17T10:14:49;27.20;99.90
3086;DHT22;52812;48.960;9.108;2023-08-17T10:17:21;27.00;99.90
3086;DHT22;52812;48.960;9.108;2023-08-17T10:19:54;26.90;99.90
3086;DHT22;52812;48.960;9.108;2023-08-17T10:22:31;26.90;99.90
3086;DHT22;52812;48.960;9.108;2023-08-17T10:25:00;26.90;99.90
3086;DHT22;52812;48.960;9.108;2023-08-17T10:27:26;27.00;99.90
3086;DHT22;52812;48.960;9.108;2023-08-17T10:29:52;27.00;99.90
3086;DHT22;52812;48.960;9.108;2023-08-17T10:32:21;26.90;99.90
3086;DHT22;52812;48.960;9.108;2023-08-17T10:34:47;27.00;99.90
3086;DHT22;52812;48.960;9.108;2023-08-17T10:37:14;26.90;99.90
3086;DHT22;52812;48.960;9.108;2023-08-17T10:39:48;26.90;99.90
3086;DHT22;52812;48.960;9.108;2023-08-17T10:42:14;26.70;99.90
3086;DHT22;52812;48.960;9.108;2023-08-17T10:44:43;26.70;99.90
3086;DHT22;52812;48.960;9.108;2023-08-17T10:47:33;26.70;99.90
3086;DHT22;52812;48.960;9.108;2023-08-17T10:50:40;26.90;99.90
3086;DHT22;52812;48.960;9.108;2023-08-17T10:54:35;27.00;99.90
3086;DHT22;52812;48.960;9.108;2023-08-17T10:57:44;27.20;99.90
3086;DHT22;52812;48.960;9.108;2023-08-17T11:00:54;26.90;99.90
3086;DHT22;52812;48.960;9.108;2023-08-17T11:03:36;26.60;99.90
3086;DHT22;52812;48.960;9.108;2023-08-17T11:06:17;26.90;99.90
3086;DHT22;52812;48.960;9.108;2023-08-17T11:08:55;26.90;99.90
3086;DHT22;52812;48.960;9.108;2023-08-17T11:11:22;26.70;99.90
3086;DHT22;52812;48.960;9.108;2023-08-17T11:13:52;26.80;99.90
3086;DHT22;52812;48.960;9.108;2023-08-17T11:16:18;26.60;99.90
3086;DHT22;52812;48.960;9.108;2023-08-17T11:18:59;26.40;99.90
3086;DHT22;52812;48.960;9.108;2023-08-17T11:23:55;26.50;99.90
3086;DHT22;52812;48.960;9.108;2023-08-17T11:26:22;26.50;99.90
3086;DHT22;52812;48.960;9.108;2023-08-17T11:28:47;26.50;99.90
3086;DHT22;52812;48.960;9.108;2023-08-17T11:31:14;26.70;99.90
3086;DHT22;52812;48.960;9.108;2023-08-17T11:33:41;26.70;99.90
3086;DHT22;52812;48.960;9.108;2023-08-17T11:36:07;26.90;99.90
3086;DHT22;52812;48.960;9.108;2023-08-17T11:38:38;27.10;99.90
3086;DHT22;52812;48.960;9.108;2023-08-17T11:41:04;27.10;99.90
3086;DHT22;52812;48.960;9.108;2023-08-17T11:43:32;27.00;99.90
3086;DHT22;52812;48.960;9.108;2023-08-17T11:45:58;27.00;99.90
3086;DHT22;52812;48.960;9.108;2023-08-17T11:48:24;27.10;99.90
3086;DHT22;52812;48.960;9.108;2023-08-17T11:50:50;27.20;99.90
3086;DHT22;52812;48.960;9.108;2023-08-17T11:53:16;27.30;99.90
3086;DHT22;52812;48.960;9.108;2023-08-17T11:55:42;27.30;99.90
3086;DHT22;52812;48.960;9.108;2023-08-17T11:58:07;27.60;99.90
3086;DHT22;52812;48.960;9.108;2023-08-17T12:00:39;27.70;99.90
3086;DHT22;52812;48.960;9.108;2023-08-17T12:03:06;27.50;99.90
3086;DHT22;52812;48.960;9.108;2023-08-17T12:05:32;27.80;99.90
3086;DHT22;52812;48.960;9.108;2023-08-17T12:07:59;28.00;99.90
3086;DHT22;52812;48.960;9.108;2023-08-17T12:10:31;28.30;99.90
3086;DHT22;52812;48.960;9.108;2023-08-17T12:13:01;28.40;99.90
3086;DHT22;52812;48.960;9.108;2023-08-17T12:15:35;28.40;99.90
3086;DHT22;52812;48.960;9.108;2023-08-17T12:18:04;28.20;99.90
3086;DHT22;52812;48.960;9.108;2023-08-17T12:20:32;28.30;99.90
3086;DHT22;52812;48.960;9.108;2023-08-17T12:23:02;28.00;99.90
3086;DHT22;52812;48.960;9.108;2023-08-17T12:25:28;28.00;99.90
3086;DHT22;52812;48.960;9.108;2023-08-17T12:27:54;28.20;99.90
3086;DHT22;52812;48.960;9.108;2023-08-17T12:32:51;28.60;99.90
3086;DHT22;52812;48.960;9.108;2023-08-17T12:35:17;28.70;99.90
3086;DHT22;52812;48.960;9.108;2023-08-17T12:37:42;28.90;99.90
3086;DHT22;52812;48.960;9.108;2023-08-17T12:40:08;28.90;99.90
3086;DHT22;52812;48.960;9.108;2023-08-17T12:42:35;28.80;99.90
3086;DHT22;52812;48.960;9.108;2023-08-17T12:45:00;28.50;99.90
3086;DHT22;52812;48.960;9.108;2023-08-17T12:47:26;28.50;99.90
3086;DHT22;52812;48.960;9.108;2023-08-17T12:49:51;28.30;99.90
3086;DHT22;52812;48.960;9.108;2023-08-17T12:52:17;28.20;99.90
3086;DHT22;52812;48.960;9.108;2023-08-17T12:54:43;28.30;99.90
3086;DHT22;52812;48.960;9.108;2023-08-17T12:57:08;27.90;99.90
3086;DHT22;52812;48.960;9.108;2023-08-17T12:59:34;27.60;99.90
3086;DHT22;52812;48.960;9.108;2023-08-17T13:01:59;27.60;99.90
3086;DHT22;52812;48.960;9.108;2023-08-17T13:04:25;27.30;99.90
3086;DHT22;52812;48.960;9.108;2023-08-17T13:06:50;27.10;99.90
3086;DHT22;52812;48.960;9.108;2023-08-17T13:09:17;26.80;99.90
3086;DHT22;52812;48.960;9.108;2023-08-17T13:11:45;26.60;99.90
3086;DHT22;52812;48.960;9.108;2023-08-17T13:14:13;26.50;99.90
3086;DHT22;52812;48.960;9.108;2023-08-17T13:16:39;26.40;99.90
3086;DHT22;52812;48.960;9.108;2023-08-17T13:19:07;26.10;99.90
3086;DHT22;52812;48.960;9.108;2023-08-17T13:21:33;25.90;99.90
3086;DHT22;52812;48.960;9.108;2023-08-17T13:23:59;25.70;99.90
3086;DHT22;52812;48.960;9.108;2023-08-17T13:26:24;25.70;99.90
3086;DHT22;52812;48.960;9.108;2023-08-17T13:28:50;25.50;99.90
3086;DHT22;52812;48.960;9.108;2023-08-17T13:31:16;25.50;99.90
3086;DHT22;52812;48.960;9.108;2023-08-17T13:33:41;25.30;99.90
3086;DHT22;52812;48.960;9.108;2023-08-17T13:36:07;25.10;99.90
3086;DHT22;52812;48.960;9.108;2023-08-17T13:38:32;24.80;99.90
3086;DHT22;52812;48.960;9.108;2023-08-17T13:40:58;24.80;99.90
3086;DHT22;52812;48.960;9.108;2023-08-17T13:43:24;24.70;99.90
3086;DHT22;52812;48.960;9.108;2023-08-17T13:45:50;24.60;99.90
3086;DHT22;52812;48.960;9.108;2023-08-17T13:48:15;24.60;99.90
3086;DHT22;52812;48.960;9.108;2023-08-17T13:50:41;24.50;99.90
3086;DHT22;52812;48.960;9.108;2023-08-17T13:53:07;24.40;99.90
3086;DHT22;52812;48.960;9.108;2023-08-17T13:55:33;24.30;99.90
3086;DHT22;52812;48.960;9.108;2023-08-17T13:57:58;24.20;99.90
3086;DHT22;52812;48.960;9.108;2023-08-17T14:00:25;24.10;99.90
3086;DHT22;52812;48.960;9.108;2023-08-17T14:02:52;24.10;99.90
3086;DHT22;52812;48.960;9.108;2023-08-17T14:05:17;24.20;99.90
3086;DHT22;52812;48.960;9.108;2023-08-17T14:07:43;24.20;99.90
3086;DHT22;52812;48.960;9.108;2023-08-17T14:10:09;24.30;99.90
3086;DHT22;52812;48.960;9.108;2023-08-17T14:12:34;24.40;99.90
3086;DHT22;52812;48.960;9.108;2023-08-17T14:15:00;24.40;99.90
3086;DHT22;52812;48.960;9.108;2023-08-17T14:17:26;24.40;99.90
3086;DHT22;52812;48.960;9.108;2023-08-17T14:19:51;24.40;99.90
3086;DHT22;52812;48.960;9.108;2023-08-17T14:22:17;24.50;99.90
3086;DHT22;52812;48.960;9.108;2023-08-17T14:24:47;24.40;99.90
3086;DHT22;52812;48.960;9.108;2023-08-17T14:27:13;24.50;99.90
3086;DHT22;52812;48.960;9.108;2023-08-17T14:29:38;24.50;99.90
3086;DHT22;52812;48.960;9.108;2023-08-17T14:32:04;24.60;99.90
3086;DHT22;52812;48.960;9.108;2023-08-17T14:34:30;24.60;99.90
3086;DHT22;52812;48.960;9.108;2023-08-17T14:36:55;24.60;99.90
3086;DHT22;52812;48.960;9.108;2023-08-17T14:39:21;24.70;99.90
3086;DHT22;52812;48.960;9.108;2023-08-17T14:41:46;24.70;99.90
3086;DHT22;52812;48.960;9.108;2023-08-17T14:44:12;24.70;99.90
3086;DHT22;52812;48.960;9.108;2023-08-17T14:46:37;24.70;99.90
3086;DHT22;52812;48.960;9.108;2023-08-17T14:49:04;24.80;99.90
3086;DHT22;52812;48.960;9.108;2023-08-17T14:51:30;24.90;99.90
3086;DHT22;52812;48.960;9.108;2023-08-17T14:54:02;25.00;99.90
3086;DHT22;52812;48.960;9.108;2023-08-17T14:56:27;25.00;99.90
3086;DHT22;52812;48.960;9.108;2023-08-17T14:58:53;25.10;99.90
3086;DHT22;52812;48.960;9.108;2023-08-17T15:01:18;25.20;99.90
3086;DHT22;52812;48.960;9.108;2023-08-17T15:03:44;25.30;99.90
3086;DHT22;52812;48.960;9.108;2023-08-17T15:06:09;25.40;99.90
3086;DHT22;52812;48.960;9.108;2023-08-17T15:08:35;25.40;99.90
3086;DHT22;52812;48.960;9.108;2023-08-17T15:11:00;25.50;99.90
3086;DHT22;52812;48.960;9.108;2023-08-17T15:13:27;25.60;99.90
3086;DHT22;52812;48.960;9.108;2023-08-17T15:15:53;25.80;99.90
3086;DHT22;52812;48.960;9.108;2023-08-17T15:18:18;25.80;99.90
3086;DHT22;52812;48.960;9.108;2023-08-17T15:20:44;25.80;99.90
3086;DHT22;52812;48.960;9.108;2023-08-17T15:23:09;25.80;99.90
3086;DHT22;52812;48.960;9.108;2023-08-17T15:25:35;25.90;99.90
3086;DHT22;52812;48.960;9.108;2023-08-17T15:28:01;25.90;99.90
3086;DHT22;52812;48.960;9.108;2023-08-17T15:30:26;25.90;99.90
3086;DHT22;52812;48.960;9.108;2023-08-17T15:32:52;25.90;99.90
3086;DHT22;52812;48.960;9.108;2023-08-17T15:35:18;25.90;99.90
3086;DHT22;52812;48.960;9.108;2023-08-17T15:37:43;25.80;99.90
3086;DHT22;52812;48.960;9.108;2023-08-17T15:40:09;25.80;99.90
3086;DHT22;52812;48.960;9.108;2023-08-17T15:42:36;25.90;99.90
3086;DHT22;52812;48.960;9.108;2023-08-17T15:45:02;25.90;99.90
3086;DHT22;52812;48.960;9.108;2023-08-17T15:47:28;25.90;99.90
3086;DHT22;52812;48.960;9.108;2023-08-17T15:49:53;26.00;99.90
3086;DHT22;52812;48.960;9.108;2023-08-17T15:52:19;25.90;99.90
3086;DHT22;52812;48.960;9.108;2023-08-17T15:54:44;25.80;99.90
3086;DHT22;52812;48.960;9.108;2023-08-17T15:57:10;25.90;99.90
3086;DHT22;52812;48.960;9.108;2023-08-17T15:59:36;26.00;99.90